Time;durP1;ratioP1;P1;durP2;ratioP2;P2;SDS_P1;SDS_P2;PMS_P1;PMS_P2;Temp;Humidity;BMP_temperature;BMP_pressure;BME280_temperature;BME280_humidity;BME280_pressure;Samples;Min_cycle;Max_cycle;Signal;HPM_P1;HPM_P2
2023/06/24 00:02:01;;;;;;;9.77;8.77;;;15.80;99.90;;;;;;6152731;23;20076;-81
2023/06/24 00:04:27;;;;;;;11.00;9.85;;;15.70;99.90;;;;;;6153043;23;20016;-81
2023/06/24 00:06:52;;;;;;;12.52;9.70;;;15.70;99.90;;;;;;6155779;23;20010;-81
2023/06/24 00:09:18;;;;;;;10.45;8.90;;;15.70;99.90;;;;;;6153891;23;20084;-81
2023/06/24 00:11:44;;;;;;;13.18;9.52;;;15.60;99.90;;;;;;6153240;23;20306;-81
2023/06/24 00:14:10;;;;;;;10.43;8.52;;;15.60;99.90;;;;;;6153084;23;20009;-81
2023/06/24 00:16:36;;;;;;;11.68;9.82;;;15.60;99.90;;;;;;6152991;23;20077;-80
2023/06/24 00:19:02;;;;;;;10.60;9.10;;;15.50;99.90;;;;;;6153336;23;20036;-81
2023/06/24 00:21:31;;;;;;;10.85;9.18;;;15.50;99.90;;;;;;6155022;23;20020;-81
2023/06/24 00:23:58;;;;;;;9.32;8.38;;;15.40;99.90;;;;;;6148622;23;20015;-80
2023/06/24 00:26:24;;;;;;;10.48;9.13;;;15.30;99.90;;;;;;6153789;23;20033;-80
2023/06/24 00:28:49;;;;;;;13.98;9.75;;;15.30;99.90;;;;;;6152668;23;20451;-81
2023/06/24 00:31:15;;;;;;;10.70;9.23;;;15.30;99.90;;;;;;6154062;23;20025;-80
2023/06/24 00:33:41;;;;;;;11.32;9.95;;;15.30;99.90;;;;;;6151970;23;20414;-81
2023/06/24 00:36:11;;;;;;;14.32;10.02;;;15.30;99.90;;;;;;6150952;23;19997;-80
2023/06/24 00:38:40;;;;;;;12.15;10.13;;;15.20;99.90;;;;;;6145429;23;20091;-81
2023/06/24 00:41:07;;;;;;;12.43;10.10;;;15.20;99.90;;;;;;6152514;23;20002;-81
2023/06/24 00:43:33;;;;;;;10.52;9.50;;;15.20;99.90;;;;;;6151807;23;20320;-81
2023/06/24 00:45:58;;;;;;;10.75;9.65;;;15.10;99.90;;;;;;6149697;23;20006;-81
2023/06/24 00:48:24;;;;;;;10.90;9.48;;;15.10;99.90;;;;;;6152855;23;20014;-81
2023/06/24 00:50:50;;;;;;;12.70;10.85;;;15.00;99.90;;;;;;6153014;23;20347;-81
2023/06/24 00:53:17;;;;;;;14.30;11.82;;;15.00;99.90;;;;;;6151116;23;20051;-81
2023/06/24 00:55:45;;;;;;;12.43;10.82;;;14.90;99.90;;;;;;6151254;23;20033;-81
2023/06/24 00:58:16;;;;;;;11.65;9.98;;;14.90;99.90;;;;;;6149421;23;20005;-81
2023/06/24 01:00:45;;;;;;;12.25;10.65;;;14.80;99.90;;;;;;6149346;23;20037;-81
2023/06/24 01:03:16;;;;;;;11.23;9.80;;;14.80;99.90;;;;;;6150538;23;20037;-81
2023/06/24 01:05:43;;;;;;;15.25;11.57;;;14.80;99.90;;;;;;6151978;23;20037;-80
2023/06/24 01:08:09;;;;;;;12.07;10.25;;;14.70;99.90;;;;;;6153055;23;20503;-81
2023/06/24 01:10:35;;;;;;;12.23;10.90;;;14.70;99.90;;;;;;6155825;23;20017;-80
2023/06/24 01:13:00;;;;;;;11.68;9.88;;;14.70;99.90;;;;;;6154486;23;20347;-81
2023/06/24 01:15:28;;;;;;;14.70;10.70;;;14.70;99.90;;;;;;6153320;23;20435;-81
2023/06/24 01:17:56;;;;;;;10.63;9.57;;;14.70;99.90;;;;;;6160073;23;20013;-80
2023/06/24 01:20:38;;;;;;;14.35;12.05;;;14.70;99.90;;;;;;6153417;23;20021;-80
2023/06/24 01:23:25;;;;;;;14.35;11.23;;;14.70;99.90;;;;;;6149990;23;20013;-81
2023/06/24 01:26:11;;;;;;;13.05;11.23;;;14.60;99.90;;;;;;6150094;23;20075;-80
2023/06/24 01:28:48;;;;;;;14.23;11.27;;;14.60;99.90;;;;;;6151713;23;20375;-79
2023/06/24 01:31:41;;;;;;;12.82;10.32;;;14.50;99.90;;;;;;6150378;23;20021;-81
2023/06/24 01:34:36;;;;;;;14.32;11.15;;;14.50;99.90;;;;;;6150975;23;20009;-81
2023/06/24 01:37:19;;;;;;;13.48;10.70;;;14.50;99.90;;;;;;6132246;23;20013;-80
2023/06/24 01:39:50;;;;;;;13.95;11.02;;;14.50;99.90;;;;;;6152027;23;20527;-81
2023/06/24 01:42:18;;;;;;;14.07;12.10;;;14.50;99.90;;;;;;6151906;23;20029;-81
2023/06/24 01:44:47;;;;;;;14.00;11.13;;;14.40;99.90;;;;;;6150765;23;20096;-80
2023/06/24 01:47:17;;;;;;;12.07;10.70;;;14.40;99.90;;;;;;6148188;23;20037;-81
2023/06/24 01:49:44;;;;;;;12.32;11.00;;;14.30;99.90;;;;;;6152279;23;20012;-81
2023/06/24 01:52:11;;;;;;;11.93;10.18;;;14.30;99.90;;;;;;6150239;23;20006;-81
2023/06/24 01:54:40;;;;;;;12.45;10.88;;;14.30;99.90;;;;;;6150474;23;20406;-80
2023/06/24 01:57:08;;;;;;;12.05;10.63;;;14.30;99.90;;;;;;6151775;23;20009;-80
2023/06/24 01:59:37;;;;;;;14.30;11.27;;;14.20;99.90;;;;;;6152458;23;20013;-81
2023/06/24 02:02:05;;;;;;;12.05;10.85;;;14.20;99.90;;;;;;6152582;23;20009;-81
2023/06/24 02:04:32;;;;;;;15.55;11.82;;;14.20;99.90;;;;;;6154470;23;20033;-81
2023/06/24 02:07:01;;;;;;;14.02;10.70;;;14.20;99.90;;;;;;6153894;23;20017;-81
2023/06/24 02:09:30;;;;;;;13.32;9.95;;;14.10;99.90;;;;;;6153868;23;20434;-80
2023/06/24 02:11:58;;;;;;;11.05;9.95;;;14.10;99.90;;;;;;6154369;23;20009;-81
2023/06/24 02:14:26;;;;;;;14.23;10.52;;;14.10;99.90;;;;;;6152467;23;20036;-81
2023/06/24 02:16:56;;;;;;;8.68;7.75;;;14.00;99.90;;;;;;6154053;23;20009;-81
2023/06/24 02:19:23;;;;;;;11.05;8.98;;;14.00;99.90;;;;;;6178560;23;20006;-81
2023/06/24 02:21:51;;;;;;;11.52;8.77;;;14.00;99.90;;;;;;6152723;23;20005;-81
2023/06/24 02:24:18;;;;;;;9.13;8.23;;;13.90;99.90;;;;;;6150893;23;20415;-80
2023/06/24 02:26:44;;;;;;;12.57;9.75;;;13.90;99.90;;;;;;6153002;23;20183;-81
2023/06/24 02:29:12;;;;;;;12.13;9.65;;;13.90;99.90;;;;;;6153753;23;20005;-81
2023/06/24 02:31:38;;;;;;;10.98;8.98;;;13.90;99.90;;;;;;6153118;23;20024;-81
2023/06/24 02:34:03;;;;;;;11.50;8.70;;;13.90;99.90;;;;;;6153209;23;20061;-81
2023/06/24 02:36:29;;;;;;;11.70;8.93;;;13.80;99.90;;;;;;6178287;23;20006;-81
2023/06/24 02:38:55;;;;;;;9.43;8.23;;;13.80;99.90;;;;;;6178924;23;20025;-81
2023/06/24 02:41:20;;;;;;;9.40;8.40;;;13.80;99.90;;;;;;6153934;23;20629;-81
2023/06/24 02:43:46;;;;;;;10.90;9.55;;;13.80;99.90;;;;;;6153790;23;20398;-81
2023/06/24 02:46:11;;;;;;;9.80;8.10;;;13.70;99.90;;;;;;6154433;23;20351;-81
2023/06/24 02:48:38;;;;;;;10.25;8.70;;;13.70;99.90;;;;;;6178398;23;20067;-81
2023/06/24 02:51:06;;;;;;;9.30;8.25;;;13.70;99.90;;;;;;6153390;23;20013;-81
2023/06/24 02:53:32;;;;;;;10.25;8.98;;;13.70;99.90;;;;;;6154332;23;20009;-81
2023/06/24 02:55:58;;;;;;;8.32;7.22;;;13.70;99.90;;;;;;6184285;23;20012;-81
2023/06/24 02:58:31;;;;;;;8.98;7.85;;;13.60;99.90;;;;;;6152009;23;20080;-80
2023/06/24 03:00:59;;;;;;;9.55;8.65;;;13.60;99.90;;;;;;6151957;23;20087;-80
2023/06/24 03:03:25;;;;;;;10.48;8.30;;;13.60;99.90;;;;;;6152712;23;20070;-81
2023/06/24 03:05:53;;;;;;;11.20;8.65;;;13.60;99.90;;;;;;6153632;23;20005;-80
2023/06/24 03:08:19;;;;;;;8.88;7.95;;;13.60;99.90;;;;;;6152509;23;20118;-81
2023/06/24 03:10:44;;;;;;;9.77;8.80;;;13.60;99.90;;;;;;6151473;23;20022;-81
2023/06/24 03:13:10;;;;;;;8.77;7.60;;;13.60;99.90;;;;;;6151971;23;20495;-81
2023/06/24 03:15:36;;;;;;;9.73;8.43;;;13.60;99.90;;;;;;6153107;23;20080;-81
2023/06/24 03:18:01;;;;;;;10.07;7.15;;;13.60;99.90;;;;;;6152361;23;19997;-81
2023/06/24 03:20:27;;;;;;;9.70;8.70;;;13.50;99.90;;;;;;6151385;23;20008;-81
2023/06/24 03:22:52;;;;;;;9.05;7.88;;;13.50;99.90;;;;;;6150386;23;20001;-81
2023/06/24 03:25:18;;;;;;;10.73;8.18;;;13.50;99.90;;;;;;6150744;23;20005;-80
2023/06/24 03:27:46;;;;;;;10.48;8.88;;;13.50;99.90;;;;;;6150956;23;20085;-81
2023/06/24 03:30:14;;;;;;;10.23;7.93;;;13.50;99.90;;;;;;6150942;23;20267;-81
2023/06/24 03:32:40;;;;;;;9.43;7.82;;;13.50;99.90;;;;;;6176370;23;20210;-81
2023/06/24 03:35:07;;;;;;;11.25;8.32;;;13.50;99.90;;;;;;6150704;23;20554;-81
2023/06/24 03:37:32;;;;;;;8.98;7.72;;;13.50;99.90;;;;;;6153002;23;20002;-81
2023/06/24 03:39:58;;;;;;;12.15;8.63;;;13.50;99.90;;;;;;6152285;23;20013;-81
2023/06/24 03:42:32;;;;;;;9.98;8.55;;;13.50;99.90;;;;;;6151645;23;20033;-78
2023/06/24 03:44:58;;;;;;;9.55;7.95;;;13.50;99.90;;;;;;6151746;23;20013;-79
2023/06/24 03:47:23;;;;;;;8.98;7.63;;;13.60;99.90;;;;;;6175997;23;20009;-81
2023/06/24 03:49:49;;;;;;;10.30;8.25;;;13.50;99.90;;;;;;6175939;23;20010;-80
2023/06/24 03:52:14;;;;;;;9.30;8.27;;;13.60;99.90;;;;;;6151171;23;20023;-81
2023/06/24 03:54:40;;;;;;;11.05;7.68;;;13.60;99.90;;;;;;6150277;23;20002;-81
2023/06/24 03:57:06;;;;;;;9.30;8.15;;;13.60;99.90;;;;;;6151643;23;19997;-82
2023/06/24 03:59:32;;;;;;;9.50;7.97;;;13.60;99.90;;;;;;6155197;23;20006;-82
2023/06/24 04:01:57;;;;;;;11.63;8.65;;;13.60;99.90;;;;;;6159411;23;20066;-80
2023/06/24 04:04:23;;;;;;;9.10;8.25;;;13.70;99.90;;;;;;6156608;23;20009;-82
2023/06/24 04:06:48;;;;;;;11.30;10.10;;;13.70;99.90;;;;;;6155428;23;20392;-82
2023/06/24 04:09:14;;;;;;;11.50;9.82;;;13.70;99.90;;;;;;6154697;23;20544;-82
2023/06/24 04:11:40;;;;;;;10.90;9.30;;;13.80;99.90;;;;;;6177356;23;20029;-82
2023/06/24 04:14:06;;;;;;;10.68;9.52;;;13.80;99.90;;;;;;6152903;23;20153;-82
2023/06/24 04:16:32;;;;;;;11.32;9.10;;;13.80;99.90;;;;;;6153788;23;20001;-82
2023/06/24 04:18:58;;;;;;;11.65;10.40;;;13.80;99.90;;;;;;6154032;23;20009;-82
2023/06/24 04:21:23;;;;;;;15.07;9.43;;;13.80;99.90;;;;;;6152900;23;20387;-82
2023/06/24 04:23:49;;;;;;;11.05;9.68;;;13.90;99.90;;;;;;6151900;23;20441;-82
2023/06/24 04:26:15;;;;;;;11.32;8.60;;;13.90;99.90;;;;;;6177009;23;20088;-82
2023/06/24 04:28:40;;;;;;;12.27;9.65;;;13.90;99.90;;;;;;6151230;23;20319;-81
2023/06/24 04:31:06;;;;;;;9.77;8.73;;;14.00;99.90;;;;;;6176286;23;20045;-82
2023/06/24 04:33:31;;;;;;;12.38;9.85;;;14.00;99.90;;;;;;6152837;23;20016;-82
2023/06/24 04:35:58;;;;;;;14.00;9.23;;;14.00;99.90;;;;;;6150954;23;20002;-82
2023/06/24 04:38:24;;;;;;;11.02;8.80;;;14.10;99.90;;;;;;6151286;23;20009;-82
2023/06/24 04:40:49;;;;;;;10.48;8.90;;;14.10;99.90;;;;;;6151321;23;19997;-82
2023/06/24 04:43:15;;;;;;;11.75;9.20;;;14.10;99.90;;;;;;6152882;23;20033;-82
2023/06/24 04:45:43;;;;;;;12.70;9.27;;;14.20;99.90;;;;;;6150557;23;20009;-82
2023/06/24 04:48:09;;;;;;;10.73;9.15;;;14.20;99.90;;;;;;6149598;23;20009;-81
2023/06/24 04:50:34;;;;;;;11.32;8.00;;;14.30;99.90;;;;;;6153318;23;20392;-82
2023/06/24 04:53:01;;;;;;;11.30;8.95;;;14.30;99.90;;;;;;6150803;23;20015;-82
2023/06/24 04:55:29;;;;;;;10.10;8.68;;;14.30;99.90;;;;;;6150702;23;19997;-82
2023/06/24 04:57:55;;;;;;;11.55;9.20;;;14.40;99.90;;;;;;6150880;23;20459;-81
2023/06/24 05:00:23;;;;;;;9.18;8.27;;;14.50;99.90;;;;;;6152490;23;20017;-82
2023/06/24 05:02:48;;;;;;;10.90;8.77;;;14.50;99.90;;;;;;6176059;23;20001;-81
2023/06/24 05:05:14;;;;;;;8.95;8.05;;;14.50;99.90;;;;;;6151815;23;20370;-81
2023/06/24 05:07:39;;;;;;;9.88;8.95;;;14.60;99.90;;;;;;6150859;23;20013;-81
2023/06/24 05:10:05;;;;;;;9.45;8.55;;;14.70;99.90;;;;;;6152894;23;20073;-82
2023/06/24 05:12:31;;;;;;;9.13;8.13;;;14.70;99.90;;;;;;6150594;23;20006;-83
2023/06/24 05:14:56;;;;;;;10.95;8.40;;;14.80;99.90;;;;;;6149747;23;20037;-82
2023/06/24 05:17:22;;;;;;;12.07;9.20;;;14.90;99.90;;;;;;6150785;23;20289;-82
2023/06/24 05:19:48;;;;;;;11.35;8.20;;;14.90;99.90;;;;;;6150402;23;20009;-82
2023/06/24 05:22:13;;;;;;;10.18;8.50;;;15.00;99.90;;;;;;6153358;23;20145;-82
2023/06/24 05:24:41;;;;;;;11.50;8.20;;;15.00;99.90;;;;;;6150778;23;20015;-82
2023/06/24 05:27:07;;;;;;;11.55;8.23;;;15.10;99.90;;;;;;6150654;23;20071;-82
2023/06/24 05:29:33;;;;;;;9.98;7.63;;;15.10;99.90;;;;;;6150670;23;20084;-81
2023/06/24 05:31:59;;;;;;;10.30;7.50;;;15.20;99.90;;;;;;6151530;23;20025;-82
2023/06/24 05:34:25;;;;;;;9.73;7.70;;;15.30;99.90;;;;;;6150646;23;20036;-82
2023/06/24 05:36:51;;;;;;;10.93;7.95;;;15.30;99.90;;;;;;6153503;23;20446;-82
2023/06/24 05:39:17;;;;;;;10.45;6.95;;;15.40;99.90;;;;;;6153931;23;20002;-82
2023/06/24 05:41:43;;;;;;;12.25;7.82;;;15.60;99.90;;;;;;6154116;23;20080;-80
2023/06/24 05:44:11;;;;;;;11.48;7.35;;;15.60;99.90;;;;;;6154175;23;20032;-81
2023/06/24 05:46:37;;;;;;;7.50;6.65;;;15.70;99.90;;;;;;6152311;23;20079;-81
2023/06/24 05:49:03;;;;;;;8.68;6.40;;;15.90;99.90;;;;;;6151773;23;20048;-81
2023/06/24 05:51:29;;;;;;;6.45;5.20;;;16.10;99.90;;;;;;6153252;23;20002;-81
2023/06/24 05:53:54;;;;;;;5.70;5.13;;;16.20;99.90;;;;;;6152468;23;20010;-81
2023/06/24 05:56:22;;;;;;;11.57;5.78;;;16.30;99.90;;;;;;6153445;23;20001;-81
2023/06/24 05:58:48;;;;;;;8.60;6.18;;;16.50;99.90;;;;;;6153476;23;20419;-80
2023/06/24 06:01:13;;;;;;;11.02;6.00;;;16.70;99.90;;;;;;6153821;23;20014;-81
2023/06/24 06:03:39;;;;;;;7.03;5.82;;;16.90;99.90;;;;;;6153723;23;20014;-82
2023/06/24 06:06:05;;;;;;;8.05;6.07;;;17.00;99.90;;;;;;6152426;23;20013;-82
2023/06/24 06:08:30;;;;;;;6.55;5.82;;;17.20;99.90;;;;;;6152970;23;20442;-81
2023/06/24 06:10:56;;;;;;;10.18;5.70;;;17.40;99.90;;;;;;6153442;23;20005;-81
2023/06/24 06:13:22;;;;;;;6.25;5.40;;;17.50;99.90;;;;;;6153094;23;20095;-82
2023/06/24 06:15:47;;;;;;;7.55;5.50;;;17.60;99.90;;;;;;6152796;23;20009;-81
2023/06/24 06:18:13;;;;;;;6.18;5.00;;;17.70;99.90;;;;;;6155286;23;20002;-81
2023/06/24 06:20:39;;;;;;;8.02;4.95;;;17.80;99.90;;;;;;6177859;23;20434;-81
2023/06/24 06:23:04;;;;;;;8.52;4.70;;;17.90;99.90;;;;;;6151804;23;20726;-81
2023/06/24 06:25:30;;;;;;;8.10;4.90;;;18.00;99.90;;;;;;6152804;23;20002;-81
2023/06/24 06:27:55;;;;;;;6.22;4.88;;;18.10;99.90;;;;;;6153443;23;20491;-81
2023/06/24 06:30:21;;;;;;;7.50;5.05;;;18.10;99.90;;;;;;6152857;23;20013;-81
2023/06/24 06:32:46;;;;;;;5.65;4.45;;;18.10;99.90;;;;;;6152601;23;20010;-81
2023/06/24 06:35:12;;;;;;;6.85;4.43;;;18.20;99.90;;;;;;6176888;23;20013;-81
2023/06/24 06:37:37;;;;;;;4.88;4.25;;;18.10;99.90;;;;;;6153057;23;20005;-81
2023/06/24 06:40:03;;;;;;;7.38;5.45;;;18.10;99.90;;;;;;6153764;23;20009;-81
2023/06/24 06:42:30;;;;;;;6.45;4.45;;;18.20;99.90;;;;;;6153591;23;20033;-82
2023/06/24 06:44:55;;;;;;;5.45;4.63;;;18.30;99.90;;;;;;6152254;23;20009;-82
2023/06/24 06:47:21;;;;;;;17.67;7.20;;;18.40;99.90;;;;;;6152622;23;20016;-81
2023/06/24 06:49:46;;;;;;;9.15;5.50;;;18.40;99.90;;;;;;6176066;23;20110;-82
2023/06/24 06:52:12;;;;;;;8.50;5.82;;;18.50;99.90;;;;;;6152685;23;20097;-81
2023/06/24 06:54:37;;;;;;;6.75;5.43;;;18.60;99.90;;;;;;6150448;23;20435;-81
2023/06/24 06:57:04;;;;;;;23.30;7.53;;;18.70;99.90;;;;;;6176459;23;20028;-82
2023/06/24 06:59:30;;;;;;;8.93;4.93;;;18.90;99.90;;;;;;6151196;23;20033;-81
2023/06/24 07:01:56;;;;;;;7.28;4.45;;;19.20;99.90;;;;;;6150484;23;20013;-81
2023/06/24 07:04:22;;;;;;;5.68;4.35;;;19.30;99.90;;;;;;6152603;23;20098;-82
2023/06/24 07:06:47;;;;;;;5.57;5.00;;;19.30;99.90;;;;;;6153298;23;20483;-81
2023/06/24 07:09:13;;;;;;;4.70;4.20;;;19.40;99.90;;;;;;6152292;23;20028;-82
2023/06/24 07:11:38;;;;;;;7.35;5.20;;;19.40;99.90;;;;;;6153341;23;20074;-81
2023/06/24 07:14:04;;;;;;;5.47;4.30;;;19.60;99.90;;;;;;6150875;23;20010;-81
2023/06/24 07:16:29;;;;;;;5.13;4.10;;;19.70;99.90;;;;;;6152787;23;19998;-83
2023/06/24 07:18:55;;;;;;;6.85;3.88;;;19.80;99.90;;;;;;6153102;23;19993;-81
2023/06/24 07:21:21;;;;;;;5.60;4.00;;;19.90;99.90;;;;;;6176627;23;20002;-81
2023/06/24 07:23:46;;;;;;;6.43;3.97;;;20.10;99.90;;;;;;6153319;23;20416;-81
2023/06/24 07:26:12;;;;;;;4.20;3.50;;;20.10;99.90;;;;;;6155782;23;20043;-81
2023/06/24 07:28:37;;;;;;;4.57;3.83;;;20.20;99.90;;;;;;6151657;23;20012;-82
2023/06/24 07:31:03;;;;;;;4.03;3.58;;;20.20;99.90;;;;;;6149195;23;20040;-81
2023/06/24 07:33:30;;;;;;;4.13;3.63;;;20.20;99.90;;;;;;6150093;23;20399;-82
2023/06/24 07:35:56;;;;;;;4.80;3.72;;;20.30;99.90;;;;;;6150412;23;20590;-82
2023/06/24 07:38:21;;;;;;;6.00;4.13;;;20.40;99.90;;;;;;6151100;23;20017;-83
2023/06/24 07:40:47;;;;;;;6.07;4.63;;;20.40;99.90;;;;;;6150763;23;20005;-82
2023/06/24 07:43:13;;;;;;;3.92;3.53;;;20.40;99.90;;;;;;6151826;23;20009;-82
2023/06/24 07:45:38;;;;;;;3.78;3.47;;;20.50;99.90;;;;;;6151659;23;20334;-82
2023/06/24 07:48:04;;;;;;;5.20;3.75;;;20.60;99.90;;;;;;6151684;23;20013;-79
2023/06/24 07:50:31;;;;;;;3.50;3.20;;;20.80;99.90;;;;;;6150775;23;20084;-80
2023/06/24 07:52:57;;;;;;;5.75;4.00;;;20.80;99.90;;;;;;6149208;23;20005;-80
2023/06/24 07:55:22;;;;;;;4.88;4.20;;;20.90;99.90;;;;;;6151155;23;20011;-80
2023/06/24 07:57:48;;;;;;;4.47;3.20;;;21.00;99.90;;;;;;6150312;23;20009;-80
2023/06/24 08:00:15;;;;;;;5.50;3.45;;;21.10;99.90;;;;;;6174726;23;19998;-81
2023/06/24 08:02:41;;;;;;;4.78;3.78;;;21.20;99.90;;;;;;6148730;23;19993;-80
2023/06/24 08:05:07;;;;;;;4.45;3.72;;;21.10;99.90;;;;;;6176913;23;20006;-80
2023/06/24 08:07:33;;;;;;;5.30;3.25;;;21.30;99.90;;;;;;6161060;23;20014;-81
2023/06/24 08:09:58;;;;;;;4.13;3.70;;;21.40;99.90;;;;;;6160116;23;20454;-80
2023/06/24 08:12:24;;;;;;;4.78;3.45;;;21.60;99.90;;;;;;6154604;23;20029;-80
2023/06/24 08:14:49;;;;;;;3.72;3.40;;;21.70;99.90;;;;;;6150301;23;20005;-80
2023/06/24 08:17:15;;;;;;;4.38;3.30;;;22.00;99.90;;;;;;6174600;23;20335;-80
2023/06/24 08:19:40;;;;;;;4.72;4.22;;;22.20;99.90;;;;;;6150220;23;20006;-82
2023/06/24 08:22:06;;;;;;;4.47;3.65;;;22.50;99.90;;;;;;6150244;23;20449;-81
2023/06/24 08:24:32;;;;;;;3.78;3.40;;;22.60;99.90;;;;;;6148987;23;20009;-80
2023/06/24 08:26:57;;;;;;;2.70;2.50;;;22.70;99.90;;;;;;6149980;23;20081;-80
2023/06/24 08:29:23;;;;;;;4.55;3.53;;;22.60;99.90;;;;;;6150110;23;20017;-80
2023/06/24 08:31:48;;;;;;;3.88;3.30;;;22.70;99.90;;;;;;6174085;23;20347;-80
2023/06/24 08:34:14;;;;;;;3.95;2.80;;;22.80;99.90;;;;;;6149517;23;20687;-81
2023/06/24 08:36:39;;;;;;;3.95;2.63;;;22.90;99.90;;;;;;6149913;23;20001;-80
2023/06/24 08:39:05;;;;;;;3.05;2.80;;;23.10;99.90;;;;;;6151516;23;20005;-80
2023/06/24 08:41:31;;;;;;;4.32;3.80;;;23.10;99.90;;;;;;6150633;23;20072;-80
2023/06/24 08:43:56;;;;;;;3.10;2.80;;;23.20;99.90;;;;;;6149616;23;20071;-81
2023/06/24 08:46:25;;;;;;;4.53;3.30;;;23.30;99.90;;;;;;6149544;23;20005;-81
2023/06/24 08:49:01;;;;;;;4.40;2.80;;;23.30;99.90;;;;;;6149803;23;20390;-80
2023/06/24 08:51:29;;;;;;;3.67;3.30;;;23.20;99.90;;;;;;6151328;23;20083;-80
2023/06/24 08:53:56;;;;;;;5.68;3.22;;;23.30;99.90;;;;;;6149394;23;20020;-81
2023/06/24 08:56:21;;;;;;;3.63;3.33;;;23.30;99.90;;;;;;6148019;23;20435;-80
2023/06/24 08:58:47;;;;;;;3.05;2.85;;;23.50;99.90;;;;;;6150926;23;20096;-80
2023/06/24 09:01:12;;;;;;;4.43;3.05;;;23.60;99.90;;;;;;6149293;23;20014;-81
2023/06/24 09:03:38;;;;;;;5.10;3.58;;;23.70;99.90;;;;;;6173410;23;20506;-80
2023/06/24 09:06:04;;;;;;;4.50;3.63;;;23.80;99.90;;;;;;6148334;23;20590;-81
2023/06/24 09:08:29;;;;;;;5.65;3.00;;;23.90;99.90;;;;;;6173637;23;20343;-80
2023/06/24 09:10:58;;;;;;;5.35;3.53;;;24.00;99.90;;;;;;6149924;23;20009;-81
2023/06/24 09:13:36;;;;;;;4.05;3.50;;;24.00;99.90;;;;;;6149568;23;20024;-80
2023/06/24 09:16:15;;;;;;;7.75;3.28;;;24.00;99.90;;;;;;6149406;23;20093;-82
2023/06/24 09:18:41;;;;;;;4.07;3.00;;;23.80;99.70;;;;;;6150118;23;20189;-80
2023/06/24 09:21:07;;;;;;;3.45;2.80;;;23.50;99.90;;;;;;6150788;23;20632;-80
2023/06/24 09:23:37;;;;;;;3.20;2.90;;;23.40;99.90;;;;;;6152285;23;20005;-82
2023/06/24 09:26:02;;;;;;;4.32;3.85;;;23.50;99.90;;;;;;6175648;23;20083;-80
2023/06/24 09:28:28;;;;;;;3.90;3.30;;;23.60;99.90;;;;;;6156205;23;20412;-80
2023/06/24 09:31:09;;;;;;;3.55;3.25;;;23.70;99.90;;;;;;6149997;23;20652;-81
2023/06/24 09:33:35;;;;;;;3.80;3.42;;;23.80;99.90;;;;;;6150838;23;20027;-80
2023/06/24 09:36:04;;;;;;;6.53;3.63;;;23.80;99.90;;;;;;6150134;23;20033;-81
2023/06/24 09:38:35;;;;;;;3.60;3.30;;;23.90;99.90;;;;;;6150992;23;20394;-81
2023/06/24 09:41:05;;;;;;;3.50;3.10;;;23.90;99.90;;;;;;6151399;23;20012;-82
2023/06/24 09:43:37;;;;;;;3.33;2.83;;;23.80;99.90;;;;;;6151880;23;20017;-81
2023/06/24 09:46:04;;;;;;;3.33;3.00;;;23.80;99.90;;;;;;6149804;23;20009;-81
2023/06/24 09:48:29;;;;;;;3.40;3.08;;;23.80;99.90;;;;;;6152630;23;20081;-81
2023/06/24 09:51:00;;;;;;;3.83;3.38;;;23.80;99.90;;;;;;6154502;23;20005;-81
2023/06/24 09:53:29;;;;;;;3.90;3.50;;;23.80;99.90;;;;;;6153634;23;20005;-83
2023/06/24 09:55:56;;;;;;;5.63;3.13;;;23.90;99.90;;;;;;6163066;23;20005;-82
2023/06/24 09:58:22;;;;;;;3.60;2.95;;;23.90;99.90;;;;;;6157459;23;20005;-80
2023/06/24 10:00:49;;;;;;;3.20;2.90;;;24.00;99.90;;;;;;6151339;23;20013;-80
2023/06/24 10:03:14;;;;;;;6.32;3.63;;;24.00;99.90;;;;;;6151997;23;20005;-81
2023/06/24 10:05:41;;;;;;;5.00;3.58;;;24.00;99.90;;;;;;6149061;23;20041;-80
2023/06/24 10:08:08;;;;;;;3.60;3.30;;;24.10;99.90;;;;;;6151847;23;20419;-82
2023/06/24 10:10:33;;;;;;;5.50;4.07;;;24.00;99.90;;;;;;6152832;23;20002;-80
2023/06/24 10:12:59;;;;;;;3.92;3.55;;;24.00;99.40;;;;;;6150512;23;20116;-80
2023/06/24 10:15:25;;;;;;;3.70;3.35;;;23.80;99.90;;;;;;6174641;23;20041;-81
2023/06/24 10:17:51;;;;;;;4.07;3.38;;;23.80;99.90;;;;;;6151722;23;20056;-82
2023/06/24 10:20:26;;;;;;;3.10;2.90;;;23.80;99.90;;;;;;6151425;23;20009;-81
2023/06/24 10:22:52;;;;;;;4.50;3.92;;;23.80;99.90;;;;;;6153292;23;20482;-82
2023/06/24 10:25:18;;;;;;;3.70;2.92;;;23.90;99.90;;;;;;6151833;23;20010;-79
2023/06/24 10:27:44;;;;;;;4.97;3.15;;;23.90;99.90;;;;;;6178747;23;20022;-81
2023/06/24 10:30:19;;;;;;;4.03;3.65;;;23.90;99.90;;;;;;6177529;23;20091;-80
2023/06/24 10:32:44;;;;;;;7.30;3.97;;;23.90;99.90;;;;;;6155838;23;20021;-80
2023/06/24 10:35:29;;;;;;;3.28;3.08;;;23.90;99.90;;;;;;6152355;23;20010;-81
2023/06/24 10:37:59;;;;;;;5.20;4.07;;;23.90;99.90;;;;;;6154370;23;20005;-80
2023/06/24 10:40:39;;;;;;;3.97;3.25;;;23.90;99.80;;;;;;6157059;23;19997;-80
2023/06/24 10:43:29;;;;;;;3.63;3.35;;;23.80;99.90;;;;;;6153982;23;20009;-80
2023/06/24 10:45:57;;;;;;;5.55;4.22;;;23.80;99.90;;;;;;6152676;23;20006;-81
2023/06/24 10:48:23;;;;;;;4.07;3.67;;;23.70;99.90;;;;;;6153697;23;20060;-81
2023/06/24 10:50:52;;;;;;;4.05;3.33;;;23.60;99.60;;;;;;6153568;23;20006;-82
2023/06/24 10:53:21;;;;;;;6.47;4.05;;;23.70;99.90;;;;;;6153614;23;20017;-82
2023/06/24 10:55:46;;;;;;;4.80;3.28;;;23.70;99.90;;;;;;6153329;23;20021;-81
2023/06/24 10:58:15;;;;;;;3.60;3.30;;;23.80;99.90;;;;;;6154034;23;20011;-81
2023/06/24 11:00:41;;;;;;;6.65;4.32;;;23.70;99.90;;;;;;6153622;23;20068;-81
2023/06/24 11:03:11;;;;;;;4.78;3.95;;;23.80;99.90;;;;;;6181932;23;20001;-80
2023/06/24 11:05:39;;;;;;;5.88;4.20;;;23.90;99.90;;;;;;6152907;23;20002;-80
2023/06/24 11:08:08;;;;;;;3.70;3.40;;;23.90;99.90;;;;;;6151903;23;20005;-81
2023/06/24 11:10:50;;;;;;;6.10;3.47;;;24.00;99.90;;;;;;6152357;23;20033;-81
2023/06/24 11:13:20;;;;;;;4.28;3.60;;;24.00;99.90;;;;;;6152606;23;20441;-81
2023/06/24 11:15:45;;;;;;;3.25;2.95;;;24.00;99.90;;;;;;6150045;23;20005;-82
2023/06/24 11:18:11;;;;;;;4.05;3.35;;;24.10;99.90;;;;;;6151383;23;20005;-80
2023/06/24 11:20:40;;;;;;;3.85;3.50;;;24.10;99.90;;;;;;6151327;23;20443;-81
2023/06/24 11:23:10;;;;;;;5.35;4.70;;;24.20;99.90;;;;;;6151148;23;20455;-83
2023/06/24 11:25:40;;;;;;;3.35;3.05;;;24.10;99.50;;;;;;6175740;23;20006;-81
2023/06/24 11:28:17;;;;;;;4.88;3.53;;;24.00;99.30;;;;;;6151538;23;20029;-81
2023/06/24 11:30:42;;;;;;;4.45;3.72;;;23.90;99.90;;;;;;6150356;23;20010;-82
2023/06/24 11:33:08;;;;;;;4.47;3.60;;;23.90;99.90;;;;;;6175441;23;20020;-81
2023/06/24 11:35:36;;;;;;;4.43;3.45;;;23.90;99.90;;;;;;6150899;23;20002;-81
2023/06/24 11:38:01;;;;;;;3.95;3.60;;;24.00;99.90;;;;;;6151073;23;20006;-82
2023/06/24 11:40:27;;;;;;;4.60;3.47;;;24.10;99.90;;;;;;6175899;23;20589;-82
2023/06/24 11:42:52;;;;;;;6.57;3.85;;;24.20;99.90;;;;;;6151425;23;20005;-82
2023/06/24 11:45:21;;;;;;;4.40;3.72;;;24.20;99.90;;;;;;6150999;23;20036;-81
2023/06/24 11:47:48;;;;;;;4.95;3.60;;;24.30;99.90;;;;;;6152365;23;20002;-82
2023/06/24 11:50:13;;;;;;;4.93;3.92;;;24.30;99.90;;;;;;6152777;23;20009;-81
2023/06/24 11:52:45;;;;;;;4.72;4.13;;;24.20;99.90;;;;;;6175242;23;20479;-80
2023/06/24 11:55:23;;;;;;;5.28;4.78;;;24.10;99.90;;;;;;6151898;23;20008;-81
2023/06/24 11:57:50;;;;;;;4.15;3.75;;;24.10;99.90;;;;;;6150795;23;20065;-81
2023/06/24 12:00:16;;;;;;;3.95;3.47;;;24.10;99.90;;;;;;6149981;23;20070;-81
2023/06/24 12:02:41;;;;;;;3.58;3.28;;;24.20;99.90;;;;;;6174908;23;20032;-81
2023/06/24 12:05:07;;;;;;;4.47;4.07;;;24.20;99.90;;;;;;6173729;23;20427;-81
2023/06/24 12:07:34;;;;;;;5.40;4.32;;;24.20;99.90;;;;;;6150505;23;20006;-82
2023/06/24 12:09:59;;;;;;;4.97;4.53;;;24.30;99.90;;;;;;6151092;23;20005;-81
2023/06/24 12:12:25;;;;;;;4.22;3.80;;;24.40;99.90;;;;;;6150829;23;20012;-82
2023/06/24 12:14:50;;;;;;;5.00;3.47;;;24.40;99.80;;;;;;6149675;23;20078;-81
2023/06/24 12:17:16;;;;;;;6.57;3.80;;;24.50;99.20;;;;;;6151037;23;20014;-81
2023/06/24 12:19:42;;;;;;;4.32;3.97;;;24.60;99.90;;;;;;6150675;23;20009;-81
2023/06/24 12:22:07;;;;;;;6.00;4.20;;;24.70;99.50;;;;;;6150695;23;20083;-81
2023/06/24 12:24:33;;;;;;;6.53;4.00;;;24.70;99.90;;;;;;6150579;23;20013;-80
2023/06/24 12:26:58;;;;;;;5.35;4.22;;;24.80;99.90;;;;;;6152939;23;20316;-81
2023/06/24 12:29:24;;;;;;;5.63;3.85;;;24.80;98.40;;;;;;6150076;23;20009;-81
2023/06/24 12:31:49;;;;;;;5.60;4.43;;;24.90;99.90;;;;;;6150711;23;20466;-82
2023/06/24 12:34:15;;;;;;;3.88;3.58;;;25.00;99.40;;;;;;6150448;23;20013;-81
2023/06/24 12:36:40;;;;;;;4.75;4.05;;;25.10;99.20;;;;;;6149670;23;20093;-81
2023/06/24 12:39:06;;;;;;;4.78;3.75;;;25.20;98.60;;;;;;6177068;23;20077;-81
2023/06/24 12:41:33;;;;;;;3.88;3.58;;;25.20;99.90;;;;;;6156293;23;20064;-80
2023/06/24 12:43:58;;;;;;;4.03;3.63;;;25.40;99.20;;;;;;6174151;23;20111;-80